createdAt,value
2022-12-25T00:00:03.194Z,6.36
2022-12-25T00:03:09.528Z,6.53
2022-12-25T00:06:14.885Z,6.53
2022-12-25T00:09:20.160Z,6.48
2022-12-25T00:12:27.896Z,6.25
2022-12-25T00:15:34.699Z,6.39
2022-12-25T00:18:39.718Z,6.53
2022-12-25T00:21:45.532Z,6.56
2022-12-25T00:24:50.868Z,6.47
2022-12-25T00:27:56.051Z,6.53
2022-12-25T00:31:01.414Z,6.55
2022-12-25T00:34:06.323Z,6.40
2022-12-25T00:37:11.710Z,6.23
2022-12-25T00:40:17.429Z,6.09
2022-12-25T00:43:22.776Z,5.82
2022-12-25T00:46:29.077Z,5.83
2022-12-25T00:49:36.624Z,5.91
2022-12-25T00:52:43.689Z,5.88
2022-12-25T00:55:49.608Z,5.96
2022-12-25T00:58:56.057Z,6.00
2022-12-25T01:02:02.856Z,5.96
2022-12-25T01:05:12.203Z,5.99
2022-12-25T01:08:18.398Z,5.96
2022-12-25T01:11:25.104Z,6.05
2022-12-25T01:14:31.251Z,5.93
2022-12-25T01:17:36.408Z,5.93
2022-12-25T01:20:42.000Z,6.07
2022-12-25T01:23:47.516Z,5.95
2022-12-25T01:26:55.373Z,6.02
2022-12-25T01:30:01.691Z,5.92
2022-12-25T01:33:06.809Z,6.02
2022-12-25T01:36:12.626Z,5.78
2022-12-25T01:39:18.895Z,5.34
2022-12-25T01:42:33.092Z,5.38
2022-12-25T01:45:59.933Z,5.18
2022-12-25T01:49:05.796Z,5.30
2022-12-25T01:52:28.755Z,5.21
2022-12-25T01:55:34.367Z,5.32
2022-12-25T01:58:39.565Z,5.37
2022-12-25T02:01:45.142Z,5.38
2022-12-25T02:05:12.317Z,5.26
2022-12-25T02:08:25.101Z,5.19
2022-12-25T02:11:48.603Z,5.28
2022-12-25T02:14:59.754Z,5.37
2022-12-25T02:18:12.420Z,5.32
2022-12-25T02:21:32.536Z,5.34
2022-12-25T02:24:48.989Z,5.48
2022-12-25T02:28:20.409Z,5.51
2022-12-25T02:31:36.356Z,5.54
2022-12-25T02:34:59.325Z,5.58
2022-12-25T02:38:08.675Z,5.48
2022-12-25T02:41:16.145Z,5.42
2022-12-25T02:44:40.812Z,5.38
2022-12-25T02:48:04.538Z,5.38
2022-12-25T02:51:27.338Z,5.39
2022-12-25T02:54:53.162Z,5.30
2022-12-25T02:58:20.424Z,5.40
2022-12-25T03:01:48.535Z,5.39
2022-12-25T03:05:10.840Z,5.56
2022-12-25T03:08:18.257Z,5.58
2022-12-25T03:11:38.693Z,5.63
2022-12-25T03:15:00.680Z,5.67
2022-12-25T03:18:04.174Z,5.66
2022-12-25T03:21:26.210Z,5.59
2022-12-25T03:24:47.713Z,5.60
2022-12-25T03:27:52.584Z,5.58
2022-12-25T03:31:19.546Z,5.42
2022-12-25T03:35:09.945Z,5.55
2022-12-25T03:38:39.000Z,5.88
2022-12-25T03:42:16.715Z,5.70
2022-12-25T03:45:42.916Z,5.67
2022-12-25T03:49:08.151Z,5.59
2022-12-25T03:52:30.890Z,5.51
2022-12-25T03:55:52.696Z,5.45
2022-12-25T03:59:26.193Z,5.69
2022-12-25T04:02:48.426Z,5.58
2022-12-25T04:06:10.462Z,5.66
2022-12-25T04:09:34.016Z,5.76
2022-12-25T04:12:56.361Z,5.71
2022-12-25T04:16:19.157Z,5.58
2022-12-25T04:19:42.247Z,5.45
2022-12-25T04:23:04.594Z,5.57
2022-12-25T04:26:31.522Z,5.49
2022-12-25T04:29:54.451Z,5.49
2022-12-25T04:33:08.783Z,5.46
2022-12-25T04:36:21.354Z,5.55
2022-12-25T04:39:25.682Z,5.54
2022-12-25T04:42:31.277Z,5.46
2022-12-25T04:45:35.419Z,5.68
2022-12-25T04:48:41.636Z,5.58
2022-12-25T04:51:46.631Z,5.63
2022-12-25T04:54:52.948Z,5.82
2022-12-25T04:57:56.896Z,5.89
2022-12-25T05:01:01.672Z,5.97
2022-12-25T05:04:07.104Z,5.92
2022-12-25T05:07:11.799Z,5.76
2022-12-25T05:10:15.870Z,5.89
2022-12-25T05:13:20.491Z,6.03
2022-12-25T05:16:31.708Z,6.08
2022-12-25T05:19:36.152Z,6.26
2022-12-25T05:22:41.645Z,6.20
2022-12-25T05:25:47.033Z,6.28
2022-12-25T05:28:51.095Z,6.13
2022-12-25T05:31:56.098Z,6.13
2022-12-25T05:35:00.397Z,6.14
2022-12-25T05:38:04.589Z,6.23
2022-12-25T05:41:09.686Z,6.19
2022-12-25T05:44:13.189Z,6.36
2022-12-25T05:47:19.200Z,6.34
2022-12-25T05:50:24.493Z,6.13
2022-12-25T05:53:30.945Z,6.09
2022-12-25T05:56:35.301Z,6.11
2022-12-25T05:59:38.651Z,6.13
2022-12-25T06:02:43.933Z,6.05
2022-12-25T06:05:47.991Z,5.89
2022-12-25T06:08:55.260Z,5.81
2022-12-25T06:12:00.097Z,5.89
2022-12-25T06:15:04.205Z,5.94
2022-12-25T06:18:08.634Z,5.94
2022-12-25T06:21:13.565Z,5.80
2022-12-25T06:24:21.415Z,5.86
2022-12-25T06:27:24.674Z,5.82
2022-12-25T06:30:29.960Z,5.76
2022-12-25T06:33:34.136Z,5.69
2022-12-25T06:36:41.165Z,5.72
2022-12-25T06:39:45.362Z,5.70
2022-12-25T06:42:50.439Z,5.72
2022-12-25T06:45:56.328Z,5.70
2022-12-25T06:49:01.433Z,5.79
2022-12-25T06:52:05.458Z,5.93
2022-12-25T06:55:09.146Z,5.94
2022-12-25T06:58:13.003Z,5.77
2022-12-25T07:01:22.657Z,5.82
2022-12-25T07:04:34.061Z,5.74
2022-12-25T07:07:38.325Z,5.84
2022-12-25T07:10:42.681Z,5.96
2022-12-25T07:13:41.398Z,5.92
2022-12-25T07:16:46.414Z,6.18
2022-12-25T07:19:52.635Z,5.96
2022-12-25T07:22:57.288Z,6.17
2022-12-25T07:26:11.336Z,6.15
2022-12-25T07:29:15.032Z,6.26
2022-12-25T07:32:20.112Z,5.81
2022-12-25T07:35:26.216Z,5.51
2022-12-25T07:38:30.983Z,5.53
2022-12-25T07:41:37.015Z,6.00
2022-12-25T07:44:45.615Z,5.97
2022-12-25T07:47:53.852Z,6.13
2022-12-25T07:50:57.984Z,6.13
2022-12-25T07:54:01.646Z,6.19
2022-12-25T07:57:06.857Z,6.40
2022-12-25T08:00:10.741Z,6.14
2022-12-25T08:03:15.594Z,5.96
2022-12-25T08:06:22.138Z,6.26
2022-12-25T08:09:26.598Z,6.27
2022-12-25T08:12:31.176Z,6.19
2022-12-25T08:15:35.684Z,6.24
2022-12-25T08:18:38.920Z,6.26
2022-12-25T08:21:42.982Z,6.47
2022-12-25T08:24:47.353Z,6.26
2022-12-25T08:27:51.673Z,6.47
2022-12-25T08:30:56.766Z,6.54
2022-12-25T08:34:02.006Z,6.60
2022-12-25T08:37:05.597Z,6.75
2022-12-25T08:40:10.037Z,6.72
2022-12-25T08:43:15.074Z,6.33
2022-12-25T08:46:20.635Z,6.37
2022-12-25T08:49:25.244Z,6.31
2022-12-25T08:52:30.260Z,6.25
2022-12-25T08:55:34.302Z,6.24
2022-12-25T08:58:38.029Z,6.52
2022-12-25T09:01:43.175Z,6.58
2022-12-25T09:04:48.368Z,6.51
2022-12-25T09:07:53.922Z,6.39
2022-12-25T09:10:57.949Z,6.63
2022-12-25T09:14:03.125Z,6.65
2022-12-25T09:17:06.710Z,6.40
2022-12-25T09:20:11.357Z,6.50
2022-12-25T09:23:17.199Z,6.58
2022-12-25T09:26:23.243Z,6.60
2022-12-25T09:29:22.629Z,6.72
2022-12-25T09:32:14.726Z,6.80
2022-12-25T09:35:21.361Z,6.70
2022-12-25T09:38:25.396Z,6.56
2022-12-25T09:41:43.928Z,6.47
2022-12-25T09:44:50.739Z,6.56
2022-12-25T09:47:56.030Z,6.58
2022-12-25T09:51:04.051Z,6.52
2022-12-25T09:54:12.553Z,6.49
2022-12-25T09:57:17.154Z,6.71
2022-12-25T10:00:35.228Z,6.71
2022-12-25T10:04:05.644Z,6.79
2022-12-25T10:07:30.756Z,6.98
2022-12-25T10:10:47.481Z,6.79
2022-12-25T10:13:56.415Z,6.67
2022-12-25T10:17:22.085Z,6.76
2022-12-25T10:20:47.395Z,6.97
2022-12-25T10:23:54.672Z,6.84
2022-12-25T10:26:59.690Z,6.26
2022-12-25T10:30:06.241Z,6.40
2022-12-25T10:33:16.858Z,6.49
2022-12-25T10:36:20.339Z,6.56
2022-12-25T10:39:32.594Z,6.61
2022-12-25T10:42:47.337Z,6.69
2022-12-25T10:46:01.985Z,6.86
2022-12-25T10:49:10.987Z,6.88
2022-12-25T10:52:15.216Z,7.04
2022-12-25T10:55:29.468Z,6.97
2022-12-25T10:58:35.424Z,7.06
2022-12-25T11:01:41.777Z,7.02
2022-12-25T11:04:47.901Z,7.00
2022-12-25T11:08:00.464Z,7.00
2022-12-25T11:11:13.211Z,7.02
2022-12-25T11:14:17.737Z,7.15
2022-12-25T11:17:26.810Z,7.04
2022-12-25T11:20:32.212Z,7.37
2022-12-25T11:23:37.949Z,7.35
2022-12-25T11:26:44.432Z,7.44
2022-12-25T11:30:03.312Z,7.52
2022-12-25T11:33:07.799Z,7.53
2022-12-25T11:36:12.100Z,7.45
2022-12-25T11:39:25.811Z,7.48
2022-12-25T11:42:53.286Z,7.52
2022-12-25T11:46:30.053Z,7.52
2022-12-25T11:49:34.965Z,7.45
2022-12-25T11:52:40.344Z,7.45
2022-12-25T11:56:01.109Z,7.44
2022-12-25T11:59:06.323Z,7.48
2022-12-25T12:02:15.294Z,7.45
2022-12-25T12:05:32.064Z,7.43
2022-12-25T12:08:35.537Z,7.38
2022-12-25T12:11:50.186Z,7.32
2022-12-25T12:15:01.974Z,7.27
2022-12-25T12:18:06.126Z,7.29
2022-12-25T12:21:13.851Z,7.16
2022-12-25T12:24:20.968Z,7.09
2022-12-25T12:27:44.267Z,7.08
2022-12-25T12:30:50.305Z,7.08
2022-12-25T12:33:58.532Z,7.04
2022-12-25T12:37:03.934Z,6.82
2022-12-25T12:40:09.078Z,7.02
2022-12-25T12:43:13.022Z,7.02
2022-12-25T12:46:27.874Z,6.98
2022-12-25T12:49:36.215Z,7.05
2022-12-25T12:52:48.239Z,6.93
2022-12-25T12:55:52.374Z,6.91
2022-12-25T12:58:59.197Z,6.94
2022-12-25T13:02:21.657Z,6.88
2022-12-25T13:05:34.945Z,7.06
2022-12-25T13:08:59.972Z,6.95
2022-12-25T13:12:05.580Z,7.11
2022-12-25T13:15:10.487Z,7.05
2022-12-25T13:18:18.701Z,7.04
2022-12-25T13:21:29.767Z,7.05
2022-12-25T13:24:37.679Z,7.04
2022-12-25T13:27:44.955Z,7.17
2022-12-25T13:30:49.917Z,7.32
2022-12-25T13:33:55.181Z,7.27
2022-12-25T13:36:59.522Z,7.15
2022-12-25T13:40:12.631Z,6.99
2022-12-25T13:43:10.359Z,7.06
2022-12-25T13:46:16.793Z,7.10
2022-12-25T13:49:25.094Z,7.11
2022-12-25T13:52:32.383Z,7.03
2022-12-25T13:55:40.416Z,6.87
2022-12-25T13:58:47.400Z,7.09
2022-12-25T14:01:58.353Z,7.02
2022-12-25T14:05:03.777Z,7.16
2022-12-25T14:08:10.322Z,7.17
2022-12-25T14:11:19.728Z,7.06
2022-12-25T14:14:34.817Z,7.00
2022-12-25T14:17:39.729Z,7.03
2022-12-25T14:20:53.863Z,7.13
2022-12-25T14:24:00.488Z,7.04
2022-12-25T14:27:13.931Z,6.97
2022-12-25T14:30:23.321Z,6.99
2022-12-25T14:33:32.659Z,7.00
2022-12-25T14:36:36.318Z,6.95
2022-12-25T14:39:46.850Z,7.12
2022-12-25T14:42:51.483Z,7.06
2022-12-25T14:45:56.631Z,6.98
2022-12-25T14:49:00.201Z,6.90
2022-12-25T14:52:04.624Z,7.09
2022-12-25T14:55:12.864Z,7.10
2022-12-25T14:58:19.691Z,7.07
2022-12-25T15:01:30.178Z,6.87
2022-12-25T15:04:35.012Z,6.93
2022-12-25T15:07:43.227Z,6.95
2022-12-25T15:11:04.956Z,6.98
2022-12-25T15:13:55.550Z,6.92
2022-12-25T15:17:02.707Z,6.90
2022-12-25T15:20:09.029Z,6.88
2022-12-25T15:23:21.009Z,6.76
2022-12-25T15:26:20.539Z,6.85
2022-12-25T15:29:52.247Z,6.81
2022-12-25T15:32:33.837Z,6.93
2022-12-25T15:35:39.999Z,6.94
2022-12-25T15:38:45.908Z,7.03
2022-12-25T15:42:09.630Z,6.88
2022-12-25T15:45:13.951Z,6.97
2022-12-25T15:48:19.903Z,7.11
2022-12-25T15:51:24.188Z,7.10
2022-12-25T15:54:27.834Z,7.00
2022-12-25T15:57:37.179Z,6.94
2022-12-25T16:00:41.355Z,6.95
2022-12-25T16:03:46.390Z,6.99
2022-12-25T16:06:50.374Z,7.06
2022-12-25T16:09:54.780Z,7.00
2022-12-25T16:13:00.140Z,6.98
2022-12-25T16:16:05.143Z,7.01
2022-12-25T16:19:10.242Z,6.99
2022-12-25T16:22:13.894Z,6.95
2022-12-25T16:25:20.271Z,6.98
2022-12-25T16:28:24.551Z,6.89
2022-12-25T16:31:29.062Z,6.95
2022-12-25T16:34:33.412Z,7.04
2022-12-25T16:37:38.352Z,7.05
2022-12-25T16:40:42.320Z,7.09
2022-12-25T16:43:45.632Z,7.12
2022-12-25T16:46:51.457Z,7.07
2022-12-25T16:49:56.489Z,7.09
2022-12-25T16:53:00.387Z,7.00
2022-12-25T16:56:04.379Z,6.99
2022-12-25T16:59:10.264Z,6.92
2022-12-25T17:02:14.421Z,6.97
2022-12-25T17:05:20.281Z,6.87
2022-12-25T17:08:24.052Z,6.93
2022-12-25T17:11:30.489Z,6.99
2022-12-25T17:14:34.397Z,6.94
2022-12-25T17:17:39.303Z,6.83
2022-12-25T17:20:45.306Z,6.80
2022-12-25T17:24:01.714Z,6.79
2022-12-25T17:27:02.246Z,6.80
2022-12-25T17:30:05.817Z,6.93
2022-12-25T17:33:10.413Z,6.91
2022-12-25T17:36:17.120Z,6.93
2022-12-25T17:39:23.393Z,6.96
2022-12-25T17:42:26.830Z,6.84
2022-12-25T17:45:32.369Z,6.98
2022-12-25T17:48:36.258Z,7.15
2022-12-25T17:51:40.788Z,7.17
2022-12-25T17:54:47.138Z,7.22
2022-12-25T17:57:52.170Z,7.22
2022-12-25T18:00:56.745Z,7.24
2022-12-25T18:04:01.602Z,7.17
2022-12-25T18:07:06.564Z,7.26
2022-12-25T18:10:12.412Z,7.22
2022-12-25T18:13:17.956Z,7.16
2022-12-25T18:16:24.067Z,7.16
2022-12-25T18:19:28.513Z,7.05
2022-12-25T18:22:32.162Z,7.00
2022-12-25T18:25:38.164Z,6.96
2022-12-25T18:28:43.185Z,6.91
2022-12-25T18:31:47.996Z,6.98
2022-12-25T18:34:52.222Z,7.07
2022-12-25T18:37:56.026Z,7.06
2022-12-25T18:41:01.280Z,7.04
2022-12-25T18:44:04.745Z,7.04
2022-12-25T18:47:11.183Z,7.04
2022-12-25T18:50:16.422Z,7.08
2022-12-25T18:53:22.420Z,7.03
2022-12-25T18:56:30.296Z,7.04
2022-12-25T18:59:35.604Z,7.28
2022-12-25T19:02:41.349Z,7.26
2022-12-25T19:05:45.328Z,7.35
2022-12-25T19:08:50.541Z,7.36
2022-12-25T19:11:57.668Z,7.28
2022-12-25T19:15:03.492Z,7.18
2022-12-25T19:18:07.588Z,7.18
2022-12-25T19:21:13.331Z,7.21
2022-12-25T19:24:16.882Z,7.23
2022-12-25T19:27:20.444Z,7.27
2022-12-25T19:30:25.546Z,7.24
2022-12-25T19:33:30.442Z,7.19
2022-12-25T19:36:35.594Z,7.17
2022-12-25T19:39:40.891Z,7.26
2022-12-25T19:42:44.492Z,7.18
2022-12-25T19:45:48.292Z,7.11
2022-12-25T19:48:52.501Z,7.10
2022-12-25T19:51:58.293Z,7.16
2022-12-25T19:55:06.763Z,7.16
2022-12-25T19:58:10.487Z,7.18
2022-12-25T20:01:19.757Z,7.21
2022-12-25T20:04:24.741Z,7.28
2022-12-25T20:07:28.510Z,7.30
2022-12-25T20:10:32.253Z,7.25
2022-12-25T20:13:29.338Z,7.17
2022-12-25T20:16:33.995Z,7.07
2022-12-25T20:19:37.752Z,7.05
2022-12-25T20:22:41.649Z,7.06
2022-12-25T20:25:45.541Z,7.07
2022-12-25T20:28:50.880Z,7.11
2022-12-25T20:31:55.119Z,7.12
2022-12-25T20:34:59.264Z,7.14
2022-12-25T20:38:03.272Z,7.13
2022-12-25T20:41:30.212Z,7.14
2022-12-25T20:44:20.959Z,7.12
2022-12-25T20:47:26.170Z,7.18
2022-12-25T20:50:31.292Z,7.22
2022-12-25T20:53:35.103Z,7.34
2022-12-25T20:56:40.147Z,7.46
2022-12-25T20:59:44.139Z,7.44
2022-12-25T21:02:50.095Z,7.28
2022-12-25T21:05:57.849Z,7.27
2022-12-25T21:09:02.587Z,7.33
2022-12-25T21:12:07.168Z,7.28
2022-12-25T21:15:03.967Z,7.29
2022-12-25T21:18:10.601Z,7.26
2022-12-25T21:21:13.990Z,7.34
2022-12-25T21:24:18.916Z,7.26
2022-12-25T21:27:22.711Z,7.21
2022-12-25T21:30:26.744Z,7.26
2022-12-25T21:33:49.681Z,7.14
2022-12-25T21:36:54.540Z,7.06
2022-12-25T21:40:00.112Z,7.10
2022-12-25T21:43:07.380Z,7.12
2022-12-25T21:46:13.319Z,7.12
2022-12-25T21:49:17.843Z,7.08
2022-12-25T21:52:21.359Z,7.08
2022-12-25T21:55:24.954Z,7.10
2022-12-25T21:58:28.997Z,7.08
2022-12-25T22:01:33.122Z,7.08
2022-12-25T22:04:37.824Z,7.04
2022-12-25T22:07:42.205Z,7.01
2022-12-25T22:10:45.403Z,7.07
2022-12-25T22:14:09.080Z,7.06
2022-12-25T22:17:32.970Z,7.14
2022-12-25T22:20:41.783Z,7.23
2022-12-25T22:23:46.407Z,7.04
2022-12-25T22:26:51.507Z,6.95
2022-12-25T22:29:55.274Z,6.95
2022-12-25T22:33:00.271Z,6.79
2022-12-25T22:36:04.209Z,6.80
2022-12-25T22:39:08.239Z,6.85
2022-12-25T22:42:05.983Z,6.85
2022-12-25T22:45:10.044Z,6.82
2022-12-25T22:48:14.049Z,6.74
2022-12-25T22:51:19.231Z,6.58
2022-12-25T22:54:26.875Z,6.61
2022-12-25T22:57:32.940Z,6.44
2022-12-25T23:00:44.277Z,6.33
2022-12-25T23:03:44.252Z,6.37
2022-12-25T23:06:49.004Z,6.33
2022-12-25T23:09:53.223Z,6.23
2022-12-25T23:13:15.455Z,6.32
2022-12-25T23:16:20.570Z,6.08
2022-12-25T23:19:46.759Z,6.38
2022-12-25T23:23:08.200Z,6.40
2022-12-25T23:26:15.515Z,6.59
2022-12-25T23:29:37.840Z,6.63
2022-12-25T23:32:42.233Z,6.52
2022-12-25T23:35:47.163Z,6.32
2022-12-25T23:38:50.989Z,6.42
2022-12-25T23:41:56.768Z,6.18
2022-12-25T23:45:01.249Z,6.18
2022-12-25T23:48:06.142Z,6.06
2022-12-25T23:51:10.047Z,6.13
2022-12-25T23:54:15.108Z,6.09
2022-12-25T23:57:19.770Z,5.96
